Time;durP1;ratioP1;P1;durP2;ratioP2;P2;SDS_P1;SDS_P2;PMS_P1;PMS_P2;Temp;Humidity;BMP_temperature;BMP_pressure;BME280_temperature;BME280_humidity;BME280_pressure;Samples;Min_cycle;Max_cycle;Signal;HPM_P1;HPM_P2
2023/12/24 00:02:06;;;;;;;194.02;103.93;;;;;;;2.77;88.46;98841.97;5019668;28;20049;-81
2023/12/24 00:04:58;;;;;;;157.18;82.05;;;;;;;2.84;88.23;98834.16;5043442;28;20037;-82
2023/12/24 00:07:43;;;;;;;132.95;61.28;;;;;;;2.84;88.01;98847.28;5019305;28;20052;-82
2023/12/24 00:10:30;;;;;;;115.97;55.40;;;;;;;2.84;87.72;98851.72;5018433;28;20052;-85
2023/12/24 00:13:15;;;;;;;90.78;48.55;;;;;;;2.84;88.10;98843.84;5026141;28;20053;-86
2023/12/24 00:16:01;;;;;;;64.18;37.50;;;;;;;2.87;87.47;98840.84;5034622;28;20053;-82
2023/12/24 00:18:50;;;;;;;70.95;35.13;;;;;;;2.88;87.63;98852.94;5018746;28;20056;-83
2023/12/24 00:21:38;;;;;;;89.53;47.47;;;;;;;2.90;87.25;98850.97;5033939;28;20052;-81
2023/12/24 00:24:23;;;;;;;91.43;47.03;;;;;;;2.90;86.82;98848.34;5027673;28;20068;-85
2023/12/24 00:27:10;;;;;;;108.30;52.72;;;;;;;2.88;87.09;98863.44;5041726;28;20064;-87
2023/12/24 00:29:56;;;;;;;103.28;52.20;;;;;;;2.90;87.04;98867.50;5023822;28;20494;-85
2023/12/24 00:32:41;;;;;;;98.45;48.33;;;;;;;2.92;87.12;98865.53;5036634;28;20493;-85
2023/12/24 00:35:27;;;;;;;91.28;47.30;;;;;;;2.99;86.43;98870.81;5035029;28;20060;-80
2023/12/24 00:38:16;;;;;;;101.05;48.45;;;;;;;3.04;86.48;98867.63;5024999;28;20056;-81
2023/12/24 00:41:01;;;;;;;110.55;51.60;;;;;;;3.08;86.25;98880.19;5013030;28;20068;-81
2023/12/24 00:43:47;;;;;;;93.75;44.80;;;;;;;3.09;86.46;98873.94;5026414;28;20053;-85
2023/12/24 00:46:32;;;;;;;77.80;42.65;;;;;;;3.09;86.01;98876.56;5033389;28;20068;-81
2023/12/24 00:49:17;;;;;;;84.55;41.30;;;;;;;3.09;86.05;98873.94;5037106;28;20052;-86
2023/12/24 00:52:10;;;;;;;87.43;43.58;;;;;;;3.10;85.64;98886.03;5038721;28;20048;-86
2023/12/24 00:54:56;;;;;;;82.40;41.88;;;;;;;3.09;85.87;98886.25;5043346;28;20045;-81
2023/12/24 00:57:41;;;;;;;70.45;36.67;;;;;;;3.09;85.70;98902.81;5028800;28;20399;-82
2023/12/24 01:00:28;;;;;;;63.30;34.22;;;;;;;3.08;86.12;98905.63;5038411;28;20064;-87
2023/12/24 01:03:16;;;;;;;63.95;34.25;;;;;;;3.08;85.89;98911.69;5029344;28;20045;-82
2023/12/24 01:06:04;;;;;;;70.55;37.95;;;;;;;3.05;85.91;98909.44;5029231;28;20057;-80
2023/12/24 01:08:56;;;;;;;79.32;41.15;;;;;;;3.05;86.62;98922.56;5040389;28;20493;-85
2023/12/24 01:11:41;;;;;;;74.35;38.55;;;;;;;3.04;86.70;98928.00;5014850;28;20510;-81
2023/12/24 01:14:34;;;;;;;71.43;39.47;;;;;;;3.04;86.52;98936.72;5027650;28;20399;-81
2023/12/24 01:17:26;;;;;;;72.38;38.05;;;;;;;3.00;87.01;98940.69;5014142;28;20052;-82
2023/12/24 01:20:21;;;;;;;77.75;40.83;;;;;;;3.01;87.18;98947.59;5028254;28;20060;-87
2023/12/24 01:23:15;;;;;;;113.57;49.08;;;;;;;3.01;87.22;98932.66;5017125;28;20044;-85
2023/12/24 01:26:03;;;;;;;103.93;49.13;;;;;;;2.97;87.90;98946.31;5015058;28;20050;-84
2023/12/24 01:28:50;;;;;;;125.78;58.60;;;;;;;2.97;88.21;98951.56;5027378;28;20479;-82
2023/12/24 01:31:39;;;;;;;118.60;54.72;;;;;;;3.00;87.31;98964.31;5027357;28;20037;-84
2023/12/24 01:34:26;;;;;;;107.30;52.63;;;;;;;2.97;87.32;98968.13;5036384;28;20045;-82
2023/12/24 01:37:12;;;;;;;103.55;47.97;;;;;;;3.00;87.52;98993.19;5028028;28;20060;-82
2023/12/24 01:40:09;;;;;;;105.43;48.17;;;;;;;3.04;86.73;99001.50;5027993;28;20049;-81
2023/12/24 01:42:56;;;;;;;95.30;46.28;;;;;;;3.07;86.96;99004.59;5023648;28;20049;-85
2023/12/24 01:45:41;;;;;;;99.15;49.78;;;;;;;3.05;87.13;98985.59;5028869;28;20584;-79
2023/12/24 01:48:26;;;;;;;103.50;48.42;;;;;;;3.05;87.31;98990.84;5021940;28;20056;-79
2023/12/24 01:51:12;;;;;;;98.38;50.90;;;;;;;3.02;87.10;98985.97;5040011;28;20045;-86
2023/12/24 01:53:58;;;;;;;115.07;50.67;;;;;;;3.06;87.65;98992.44;5041266;28;20506;-80
2023/12/24 01:56:44;;;;;;;101.40;49.17;;;;;;;3.05;87.44;98995.28;5021742;28;20423;-81
2023/12/24 01:59:31;;;;;;;116.22;52.78;;;;;;;3.00;87.00;98982.69;5024293;28;20045;-84
2023/12/24 02:02:18;;;;;;;110.07;53.13;;;;;;;3.06;87.06;98992.44;5015906;28;20041;-87
2023/12/24 02:05:04;;;;;;;105.93;52.45;;;;;;;3.06;87.32;98981.94;5034668;28;20053;-86
2023/12/24 02:07:51;;;;;;;121.65;60.58;;;;;;;3.07;87.61;98980.13;5034676;28;20060;-84
2023/12/24 02:10:42;;;;;;;108.95;55.42;;;;;;;3.08;87.19;98985.22;5034708;28;20482;-86
2023/12/24 02:13:27;;;;;;;122.93;57.25;;;;;;;3.09;87.64;98981.59;5012534;28;20052;-81
2023/12/24 02:16:19;;;;;;;118.32;57.30;;;;;;;3.09;87.58;98973.69;5034637;28;20041;-81
2023/12/24 02:19:05;;;;;;;115.30;56.97;;;;;;;3.09;87.77;98978.94;5026228;28;20399;-85
2023/12/24 02:21:51;;;;;;;117.93;57.28;;;;;;;3.13;88.43;98993.31;5012610;28;20503;-85
2023/12/24 02:24:37;;;;;;;110.72;54.65;;;;;;;3.15;87.83;98985.28;5026481;28;20037;-85
2023/12/24 02:27:47;;;;;;;113.78;54.90;;;;;;;3.13;87.53;98980.19;5026354;28;20049;-85
2023/12/24 02:30:43;;;;;;;114.47;54.95;;;;;;;3.15;87.69;98993.16;5041302;28;20053;-81
2023/12/24 02:33:32;;;;;;;112.22;54.17;;;;;;;3.14;87.67;98994.97;5026550;28;20048;-81
2023/12/24 02:36:18;;;;;;;123.38;56.15;;;;;;;3.11;87.75;98987.47;5034671;28;20053;-85
2023/12/24 02:39:05;;;;;;;126.20;62.92;;;;;;;3.13;87.79;98982.00;5026400;28;20048;-85
2023/12/24 02:41:50;;;;;;;116.28;58.90;;;;;;;3.13;88.13;98976.75;5019521;28;20044;-85
2023/12/24 02:44:37;;;;;;;114.82;56.15;;;;;;;3.12;88.08;98969.91;5034836;28;20042;-85
2023/12/24 02:47:23;;;;;;;98.30;48.90;;;;;;;3.12;87.67;98952.31;5023145;28;20049;-85
2023/12/24 02:50:09;;;;;;;85.95;43.65;;;;;;;3.13;87.93;98966.25;5035353;28;20068;-85
2023/12/24 02:52:54;;;;;;;110.72;55.83;;;;;;;3.16;87.81;98950.13;5034261;28;20053;-81
2023/12/24 02:55:43;;;;;;;126.38;57.38;;;;;;;3.18;87.94;98942.88;5026034;28;20041;-87
2023/12/24 02:58:28;;;;;;;137.57;66.68;;;;;;;3.18;87.22;98948.94;5026103;28;20048;-85
2023/12/24 03:01:15;;;;;;;142.45;69.50;;;;;;;3.20;87.66;98952.22;5025825;28;20052;-84
2023/12/24 03:04:02;;;;;;;124.45;60.58;;;;;;;3.22;87.19;98954.63;5025171;28;20045;-81
2023/12/24 03:06:48;;;;;;;118.65;57.42;;;;;;;3.25;87.29;98956.88;5025829;28;20056;-81
2023/12/24 03:09:33;;;;;;;126.05;60.80;;;;;;;3.23;87.29;98951.03;5025743;28;20041;-81
2023/12/24 03:12:18;;;;;;;169.85;84.50;;;;;;;3.21;87.38;98951.19;5025437;28;20060;-85
2023/12/24 03:15:06;;;;;;;176.60;82.97;;;;;;;3.20;88.24;98944.31;5033928;28;20045;-81
2023/12/24 03:17:51;;;;;;;167.15;81.85;;;;;;;3.22;88.02;98944.13;5040598;28;20041;-84
2023/12/24 03:20:36;;;;;;;168.80;76.07;;;;;;;3.18;87.72;98943.69;5025459;28;20405;-84
2023/12/24 03:23:21;;;;;;;176.77;85.57;;;;;;;3.16;87.99;98937.81;5011361;28;20056;-85
2023/12/24 03:26:23;;;;;;;171.25;83.78;;;;;;;3.13;88.35;98940.81;5033723;28;20049;-85
2023/12/24 03:29:12;;;;;;;160.43;77.13;;;;;;;3.06;88.07;98945.19;5020177;28;20052;-84
2023/12/24 03:31:57;;;;;;;115.45;56.40;;;;;;;2.99;88.22;98950.38;5035109;28;20052;-80
2023/12/24 03:34:43;;;;;;;114.25;55.13;;;;;;;2.96;88.73;98944.69;5018228;28;20048;-81
2023/12/24 03:37:28;;;;;;;123.80;60.15;;;;;;;2.92;88.75;98939.03;5035347;28;20056;-80
2023/12/24 03:40:14;;;;;;;107.22;54.65;;;;;;;2.88;88.78;98940.38;5033882;28;20108;-84
2023/12/24 03:42:59;;;;;;;105.90;51.92;;;;;;;2.84;89.29;98941.75;5034121;28;20510;-84
2023/12/24 03:45:46;;;;;;;96.07;50.33;;;;;;;2.81;89.40;98936.88;5019799;28;20387;-84
2023/12/24 03:48:32;;;;;;;95.55;48.78;;;;;;;2.83;89.59;98939.31;5033653;28;20423;-81
2023/12/24 03:51:18;;;;;;;93.43;47.28;;;;;;;2.83;89.47;98937.50;5033194;28;20061;-81
2023/12/24 03:54:03;;;;;;;90.60;46.40;;;;;;;2.88;89.03;98934.31;5034153;28;20427;-84
2023/12/24 03:56:50;;;;;;;75.68;42.03;;;;;;;2.92;89.24;98918.03;5029189;28;20052;-85
2023/12/24 03:59:35;;;;;;;73.53;39.22;;;;;;;2.96;89.00;98921.88;5019863;28;20052;-84
2023/12/24 04:02:24;;;;;;;79.93;38.83;;;;;;;2.95;88.99;98943.09;5033217;28;20052;-85
2023/12/24 04:05:09;;;;;;;68.68;35.95;;;;;;;2.99;88.65;98960.88;5034418;28;20056;-85
2023/12/24 04:07:55;;;;;;;63.83;35.00;;;;;;;2.96;88.65;98950.75;5032927;28;20500;-81
2023/12/24 04:10:40;;;;;;;71.68;36.53;;;;;;;2.96;88.82;98952.56;5033434;28;20053;-84
2023/12/24 04:13:26;;;;;;;75.88;36.92;;;;;;;2.97;88.39;98967.31;5026099;28;20049;-84
2023/12/24 04:16:11;;;;;;;66.38;37.83;;;;;;;2.98;88.58;98966.34;5034762;28;20056;-84
2023/12/24 04:18:57;;;;;;;80.82;41.10;;;;;;;2.99;88.70;98960.09;5018852;28;20049;-81
2023/12/24 04:21:43;;;;;;;79.18;39.47;;;;;;;3.00;88.86;98972.19;5027185;28;20048;-81
2023/12/24 04:24:29;;;;;;;75.03;40.33;;;;;;;3.00;88.06;98978.25;5029164;28;20044;-83
2023/12/24 04:27:15;;;;;;;80.38;40.50;;;;;;;3.01;88.62;98973.84;5029106;28;20060;-81
2023/12/24 04:30:00;;;;;;;73.18;39.70;;;;;;;2.99;88.50;98975.84;5028831;28;20053;-81
2023/12/24 04:32:46;;;;;;;82.70;40.35;;;;;;;2.94;88.82;98965.88;5027822;28;20315;-84
2023/12/24 04:35:32;;;;;;;76.32;41.20;;;;;;;2.92;88.91;98967.09;5028384;28;20068;-84
2023/12/24 04:38:18;;;;;;;75.80;42.58;;;;;;;2.88;88.71;98958.75;5036367;28;20056;-83
2023/12/24 04:41:03;;;;;;;77.57;43.00;;;;;;;2.83;89.00;98955.06;5027968;28;20414;-81
2023/12/24 04:43:49;;;;;;;80.00;44.20;;;;;;;2.81;89.23;98954.44;5027706;28;20052;-81
2023/12/24 04:46:40;;;;;;;73.57;39.80;;;;;;;2.80;89.31;98958.88;5035769;28;20056;-81
2023/12/24 04:49:25;;;;;;;75.00;40.20;;;;;;;2.74;89.35;98947.31;5036026;28;20045;-82
2023/12/24 04:52:11;;;;;;;88.60;41.03;;;;;;;2.71;89.50;98941.63;5027580;28;20079;-84
2023/12/24 04:54:56;;;;;;;76.65;40.50;;;;;;;2.75;89.49;98943.69;5027736;28;20056;-81
2023/12/24 04:57:42;;;;;;;94.03;47.90;;;;;;;2.72;88.67;98949.28;5027866;28;20048;-81
2023/12/24 05:00:28;;;;;;;91.97;46.08;;;;;;;2.73;89.04;98955.38;5027583;28;20061;-85
2023/12/24 05:03:13;;;;;;;86.13;42.08;;;;;;;2.70;89.36;98961.00;5035749;28;20044;-84
2023/12/24 05:05:59;;;;;;;92.30;45.35;;;;;;;2.68;89.32;98979.53;5027494;28;20053;-84
2023/12/24 05:08:45;;;;;;;92.20;44.35;;;;;;;2.65;89.37;98969.41;5035785;28;20049;-83
2023/12/24 05:11:30;;;;;;;90.38;44.92;;;;;;;2.63;89.15;98960.91;5027199;28;20082;-82
2023/12/24 05:14:16;;;;;;;101.50;50.95;;;;;;;2.56;89.67;98960.00;5036016;28;20048;-83
2023/12/24 05:17:04;;;;;;;79.18;40.13;;;;;;;2.60;89.90;98982.28;5036427;28;20198;-84
2023/12/24 05:19:49;;;;;;;81.38;42.90;;;;;;;2.63;89.66;99007.31;5036899;28;20049;-82
2023/12/24 05:22:34;;;;;;;87.32;44.70;;;;;;;2.62;89.41;99005.69;5027803;28;20048;-82
2023/12/24 05:25:22;;;;;;;84.28;41.92;;;;;;;2.61;89.57;99028.50;5036003;28;20518;-86
2023/12/24 05:28:06;;;;;;;89.32;46.90;;;;;;;2.63;90.26;99042.22;5028286;28;20049;-85
2023/12/24 05:30:52;;;;;;;94.28;48.22;;;;;;;2.59;90.10;99032.31;5047479;28;20044;-84
2023/12/24 05:33:38;;;;;;;96.45;48.38;;;;;;;2.54;89.65;99038.91;5048885;28;20049;-84
2023/12/24 05:36:23;;;;;;;91.97;48.15;;;;;;;2.50;90.39;99040.25;5044975;28;20045;-85
2023/12/24 05:39:11;;;;;;;99.95;49.03;;;;;;;2.40;90.49;99023.19;5020590;28;20514;-85
2023/12/24 05:41:57;;;;;;;93.95;47.88;;;;;;;2.36;90.74;99021.94;5034809;28;20069;-82
2023/12/24 05:44:42;;;;;;;84.43;46.03;;;;;;;2.36;90.83;99011.44;5035298;28;20261;-82
2023/12/24 05:47:27;;;;;;;93.45;44.90;;;;;;;2.43;90.76;99013.13;5034703;28;20060;-84
2023/12/24 05:50:13;;;;;;;76.55;40.85;;;;;;;2.39;90.47;99011.06;5026638;28;20046;-81
2023/12/24 05:52:58;;;;;;;79.30;41.22;;;;;;;2.39;90.52;99013.69;5034574;28;20052;-82
2023/12/24 05:55:43;;;;;;;73.82;39.35;;;;;;;2.40;90.74;99013.50;5034577;28;20537;-82
2023/12/24 05:58:29;;;;;;;72.60;39.80;;;;;;;2.42;89.93;99013.34;5034862;28;20045;-84
2023/12/24 06:01:15;;;;;;;115.35;55.30;;;;;;;2.43;90.29;99018.38;5034477;28;20395;-81
2023/12/24 06:04:00;;;;;;;113.07;58.08;;;;;;;2.42;89.93;99023.81;5033992;28;20044;-81
2023/12/24 06:06:46;;;;;;;114.13;56.70;;;;;;;2.37;89.67;99029.59;5034467;28;20565;-81
2023/12/24 06:09:32;;;;;;;91.60;47.95;;;;;;;2.37;90.34;99021.72;5034597;28;20046;-81
2023/12/24 06:12:18;;;;;;;89.18;48.17;;;;;;;2.35;89.87;99009.78;5034176;28;20052;-81
2023/12/24 06:15:04;;;;;;;90.45;48.25;;;;;;;2.24;90.88;98983.03;5034891;28;20105;-86
2023/12/24 06:17:50;;;;;;;96.63;52.85;;;;;;;2.13;90.33;98978.25;5034332;28;20048;-84
2023/12/24 06:20:37;;;;;;;103.10;52.65;;;;;;;2.05;91.35;98994.06;5034172;28;20052;-81
2023/12/24 06:23:22;;;;;;;107.85;53.55;;;;;;;1.97;90.95;99004.63;5034076;28;20049;-84
2023/12/24 06:26:08;;;;;;;105.15;56.17;;;;;;;1.90;91.33;99008.97;5033391;28;20510;-84
2023/12/24 06:28:53;;;;;;;107.70;56.13;;;;;;;1.89;91.14;99009.97;5033984;28;20163;-83
2023/12/24 06:31:39;;;;;;;113.30;61.10;;;;;;;1.91;91.48;99021.06;5034091;28;20041;-84
2023/12/24 06:34:24;;;;;;;110.90;57.88;;;;;;;1.94;91.28;99024.13;5033916;28;20037;-84
2023/12/24 06:37:10;;;;;;;112.47;58.17;;;;;;;2.08;91.14;99025.16;5033958;28;20056;-84
2023/12/24 06:39:56;;;;;;;116.30;59.15;;;;;;;2.18;91.83;99011.78;5033896;28;20483;-81
2023/12/24 06:42:41;;;;;;;105.18;55.30;;;;;;;2.30;90.46;99008.53;5033651;28;20064;-81
2023/12/24 06:45:27;;;;;;;112.22;57.78;;;;;;;2.40;90.52;99013.50;5033669;28;20053;-81
2023/12/24 06:48:13;;;;;;;96.82;51.78;;;;;;;2.88;88.94;99028.81;5033181;28;20053;-83
2023/12/24 06:50:58;;;;;;;157.90;87.45;;;;;;;3.36;87.60;99018.63;5033514;28;20052;-84
2023/12/24 06:53:44;;;;;;;137.00;72.00;;;;;;;3.59;85.79;99027.09;5033739;28;20053;-81
2023/12/24 06:56:29;;;;;;;126.60;64.93;;;;;;;3.79;84.01;99023.81;5033475;28;20088;-84
2023/12/24 06:59:15;;;;;;;204.93;115.15;;;;;;;3.65;83.22;99031.59;5033688;28;20391;-82
2023/12/24 07:02:01;;;;;;;173.13;94.78;;;;;;;3.59;84.04;99024.47;5033320;28;20418;-82
2023/12/24 07:04:46;;;;;;;157.30;85.40;;;;;;;3.50;84.31;99038.75;5018520;28;20041;-84
2023/12/24 07:07:32;;;;;;;154.40;86.93;;;;;;;3.48;84.74;99038.94;5033347;28;20049;-84
2023/12/24 07:10:17;;;;;;;147.77;78.95;;;;;;;3.54;85.09;99045.25;5034700;28;20068;-80
2023/12/24 07:13:03;;;;;;;155.93;85.93;;;;;;;3.43;85.02;99058.88;5037684;28;20037;-81
2023/12/24 07:15:51;;;;;;;130.65;70.85;;;;;;;3.53;85.83;99056.75;5036497;28;20052;-81
2023/12/24 07:18:37;;;;;;;132.40;73.43;;;;;;;3.78;84.63;99038.78;5036736;28;20452;-85
2023/12/24 07:21:23;;;;;;;139.05;77.80;;;;;;;4.04;83.98;99040.81;5036272;28;20049;-81
2023/12/24 07:24:10;;;;;;;131.75;72.80;;;;;;;4.17;83.14;99035.63;5021818;28;20038;-84
2023/12/24 07:26:56;;;;;;;145.07;81.68;;;;;;;4.37;82.96;99042.81;5036943;28;20056;-82
2023/12/24 07:29:41;;;;;;;137.10;73.75;;;;;;;4.42;82.41;99035.16;5021508;28;20045;-82
2023/12/24 07:32:27;;;;;;;117.13;63.28;;;;;;;4.31;82.55;99020.72;5017886;28;20056;-83
2023/12/24 07:35:13;;;;;;;120.55;65.53;;;;;;;4.19;83.22;99009.13;5017949;28;20041;-81
2023/12/24 07:37:58;;;;;;;126.13;69.90;;;;;;;4.02;84.08;98992.03;5021096;28;20045;-84
2023/12/24 07:40:44;;;;;;;103.00;57.70;;;;;;;3.98;84.33;99004.75;5020533;28;20052;-83
2023/12/24 07:43:29;;;;;;;106.45;55.05;;;;;;;3.96;84.44;99016.47;5019654;28;20045;-80
2023/12/24 07:46:15;;;;;;;128.00;69.97;;;;;;;3.97;84.47;99015.44;5034665;28;20505;-78
2023/12/24 07:49:00;;;;;;;128.15;69.10;;;;;;;3.98;84.80;99019.69;5039634;28;20387;-76
2023/12/24 07:51:47;;;;;;;120.90;70.10;;;;;;;4.01;84.69;99033.31;5033085;28;20452;-76
2023/12/24 07:54:33;;;;;;;151.48;87.07;;;;;;;4.03;84.87;99031.28;5039742;28;20493;-76
2023/12/24 07:57:18;;;;;;;147.77;84.90;;;;;;;4.12;85.34;99016.97;5032259;28;20045;-78
2023/12/24 08:00:09;;;;;;;145.13;87.35;;;;;;;4.20;84.66;99025.72;5036214;28;20487;-73
2023/12/24 08:03:00;;;;;;;164.77;91.72;;;;;;;4.26;84.11;99024.94;5035799;28;20042;-75
2023/12/24 08:05:46;;;;;;;344.48;184.02;;;;;;;4.12;84.81;99037.19;5036173;28;20041;-81
2023/12/24 08:08:31;;;;;;;189.80;110.30;;;;;;;4.11;85.65;99044.28;5035899;28;20057;-77
2023/12/24 08:11:17;;;;;;;189.88;110.65;;;;;;;4.15;85.47;99039.44;5035965;28;20045;-80
2023/12/24 08:14:04;;;;;;;187.93;108.25;;;;;;;4.22;85.20;99044.75;5036263;28;20483;-80
2023/12/24 08:16:49;;;;;;;154.75;89.70;;;;;;;4.45;84.28;99057.63;5035917;28;20042;-77
2023/12/24 08:19:35;;;;;;;146.40;81.85;;;;;;;4.72;83.00;99046.22;5036158;28;20506;-77
2023/12/24 08:22:21;;;;;;;147.40;89.85;;;;;;;4.88;81.40;99056.41;5035643;28;20483;-80
2023/12/24 08:25:09;;;;;;;153.15;91.85;;;;;;;5.09;81.18;99052.84;5035896;28;20037;-78
2023/12/24 08:27:55;;;;;;;142.25;85.75;;;;;;;5.26;80.85;99063.03;5042423;28;20072;-77
2023/12/24 08:30:40;;;;;;;130.93;71.38;;;;;;;5.25;80.05;99056.13;5035964;28;20395;-79
2023/12/24 08:33:26;;;;;;;135.05;74.22;;;;;;;5.40;79.67;99056.78;5027668;28;20037;-80
2023/12/24 08:36:11;;;;;;;135.05;75.28;;;;;;;5.66;78.72;99063.09;5035876;28;20048;-78
2023/12/24 08:38:57;;;;;;;132.57;68.45;;;;;;;5.89;78.03;99079.34;5020849;28;20064;-78
2023/12/24 08:41:42;;;;;;;156.77;88.95;;;;;;;6.06;76.36;99089.53;5035434;28;20056;-79
2023/12/24 08:44:27;;;;;;;148.02;83.18;;;;;;;6.51;75.05;99084.38;5035163;28;20479;-78
2023/12/24 08:47:13;;;;;;;139.20;79.35;;;;;;;6.71;73.82;99074.59;5035102;28;20042;-77
2023/12/24 08:49:58;;;;;;;112.72;64.80;;;;;;;6.71;73.79;99082.53;5035298;28;20466;-78
2023/12/24 08:52:44;;;;;;;91.55;50.95;;;;;;;6.80;73.94;99085.72;5035563;28;20391;-78
2023/12/24 08:55:30;;;;;;;94.95;49.72;;;;;;;6.90;74.48;99086.91;5035080;28;20044;-79
2023/12/24 08:58:16;;;;;;;79.72;46.45;;;;;;;6.99;74.13;99073.44;5035467;28;20048;-82
2023/12/24 09:01:02;;;;;;;84.40;46.00;;;;;;;7.14;73.68;99061.59;5035142;28;20423;-81
2023/12/24 09:03:49;;;;;;;80.03;45.20;;;;;;;7.15;73.09;99059.78;5035502;28;20044;-80
2023/12/24 09:06:37;;;;;;;70.90;44.25;;;;;;;7.33;73.56;99065.19;5035401;28;20052;-81
2023/12/24 09:09:23;;;;;;;67.72;43.30;;;;;;;7.52;72.27;99091.69;5019939;28;20060;-78
2023/12/24 09:12:09;;;;;;;67.93;41.67;;;;;;;7.39;71.64;99101.31;5034922;28;20068;-79
2023/12/24 09:14:55;;;;;;;68.32;38.97;;;;;;;7.21;72.14;99093.31;5034691;28;20056;-77
2023/12/24 09:17:40;;;;;;;63.25;38.78;;;;;;;7.68;71.38;99085.06;5035053;28;20052;-80
2023/12/24 09:20:26;;;;;;;75.80;43.38;;;;;;;7.44;73.17;99078.72;5034924;28;20068;-77
2023/12/24 09:23:11;;;;;;;71.00;42.40;;;;;;;7.42;71.02;99081.56;5034382;28;20060;-80
2023/12/24 09:25:57;;;;;;;66.80;41.72;;;;;;;7.58;71.21;99072.31;5035073;28;20048;-76
2023/12/24 09:28:43;;;;;;;69.80;40.15;;;;;;;7.74;71.28;99082.41;5034487;28;20640;-79
2023/12/24 09:31:29;;;;;;;76.75;44.03;;;;;;;8.18;70.28;99072.69;5034550;28;20048;-80
2023/12/24 09:34:15;;;;;;;71.88;42.38;;;;;;;8.27;70.90;99074.03;5019450;28;20049;-78
2023/12/24 09:37:00;;;;;;;81.55;44.47;;;;;;;8.63;69.28;99072.47;5034369;28;20045;-79
2023/12/24 09:39:46;;;;;;;76.38;44.10;;;;;;;8.24;68.07;99077.13;5034734;28;20052;-80
2023/12/24 09:42:33;;;;;;;94.40;54.53;;;;;;;8.19;68.96;99073.50;5034472;28;20060;-77
2023/12/24 09:45:39;;;;;;;116.18;66.85;;;;;;;8.30;70.20;99060.34;5034713;28;20056;-80
2023/12/24 09:48:24;;;;;;;120.60;72.43;;;;;;;8.46;68.68;99052.88;5033737;28;20042;-78
2023/12/24 09:51:11;;;;;;;112.20;66.07;;;;;;;8.84;68.44;99050.03;5033395;28;20068;-79
2023/12/24 09:53:56;;;;;;;94.57;55.97;;;;;;;9.18;67.20;99048.56;5019266;28;20058;-78
2023/12/24 09:56:41;;;;;;;83.78;50.65;;;;;;;9.40;65.82;99058.66;5034915;28;20117;-80
2023/12/24 09:59:27;;;;;;;67.32;39.95;;;;;;;8.54;66.10;99055.25;5033836;28;20044;-81
2023/12/24 10:02:12;;;;;;;80.32;46.08;;;;;;;8.46;67.19;99055.53;5033797;28;20415;-77
2023/12/24 10:05:06;;;;;;;66.03;40.00;;;;;;;8.52;66.13;99050.19;5025360;28;20072;-81
2023/12/24 10:07:52;;;;;;;84.45;49.33;;;;;;;8.85;65.38;99050.81;5034160;28;20044;-78
2023/12/24 10:10:37;;;;;;;87.75;46.28;;;;;;;9.00;66.00;99040.66;5033791;28;20067;-78
2023/12/24 10:13:23;;;;;;;94.53;51.97;;;;;;;9.01;66.43;99042.25;5019217;28;20419;-78
2023/12/24 10:16:09;;;;;;;79.90;48.15;;;;;;;9.09;65.86;99041.13;5040017;28;20053;-78
2023/12/24 10:18:58;;;;;;;83.32;49.13;;;;;;;9.15;65.93;99029.63;5031685;28;20506;-78
2023/12/24 10:21:43;;;;;;;88.57;52.05;;;;;;;9.27;66.05;99023.34;5016231;28;20048;-81
2023/12/24 10:24:29;;;;;;;86.68;51.75;;;;;;;9.48;65.66;99022.00;5031436;28;20060;-81
2023/12/24 10:27:15;;;;;;;82.28;49.60;;;;;;;9.48;64.47;99014.06;5031513;28;20458;-76
2023/12/24 10:30:12;;;;;;;80.13;49.25;;;;;;;9.62;66.01;99014.66;5009590;28;20056;-77
2023/12/24 10:33:08;;;;;;;90.10;52.03;;;;;;;9.63;66.44;99000.34;5039368;28;20072;-80
2023/12/24 10:35:57;;;;;;;101.72;59.83;;;;;;;9.81;65.96;99006.59;5040255;28;20068;-81
2023/12/24 10:38:42;;;;;;;88.90;51.70;;;;;;;9.84;65.21;99000.81;5033683;28;20041;-80
2023/12/24 10:41:28;;;;;;;90.88;51.03;;;;;;;10.01;63.68;98998.31;5033410;28;20052;-76
2023/12/24 10:44:13;;;;;;;94.07;52.58;;;;;;;9.81;62.04;99011.91;5018161;28;20041;-77
2023/12/24 10:46:59;;;;;;;91.22;54.40;;;;;;;9.92;62.03;99014.56;5026709;28;20057;-76
2023/12/24 10:49:44;;;;;;;102.45;55.33;;;;;;;10.01;64.28;99014.25;5013667;28;20404;-80
2023/12/24 10:52:30;;;;;;;90.22;51.25;;;;;;;9.79;63.63;99019.31;5013419;28;20050;-80
2023/12/24 10:55:16;;;;;;;98.05;53.90;;;;;;;9.96;62.71;98998.97;4998777;28;20439;-81
2023/12/24 10:58:29;;;;;;;86.68;49.33;;;;;;;10.11;62.61;98993.22;5006498;28;20053;-79
2023/12/24 11:01:15;;;;;;;68.03;40.75;;;;;;;10.20;62.53;98995.28;5013739;28;20041;-79
2023/12/24 11:04:01;;;;;;;70.03;41.58;;;;;;;10.16;62.71;99003.97;5013632;28;20046;-78
2023/12/24 11:06:47;;;;;;;85.13;53.50;;;;;;;10.26;63.11;99008.69;5013543;28;20037;-80
2023/12/24 11:09:42;;;;;;;61.03;36.30;;;;;;;10.43;61.43;99006.94;5013516;28;20056;-85
2023/12/24 11:12:30;;;;;;;61.97;38.22;;;;;;;10.34;61.83;99000.38;5013592;28;20052;-83
2023/12/24 11:15:41;;;;;;;96.57;55.05;;;;;;;10.40;62.07;98999.44;5013680;28;20046;-81
2023/12/24 11:18:47;;;;;;;53.97;35.72;;;;;;;10.34;60.89;98984.44;5005465;28;20044;-83
2023/12/24 11:22:11;;;;;;;47.95;30.95;;;;;;;10.30;60.88;98965.50;4998849;28;20061;-80
2023/12/24 11:25:16;;;;;;;58.28;36.35;;;;;;;10.47;60.73;98980.75;5013456;28;20050;-85
2023/12/24 11:28:03;;;;;;;66.90;38.85;;;;;;;10.58;61.57;98986.00;5013455;28;20061;-80
2023/12/24 11:30:52;;;;;;;93.30;45.38;;;;;;;10.69;61.08;98983.56;5005863;28;20049;-84
2023/12/24 11:33:48;;;;;;;90.55;46.33;;;;;;;10.83;61.79;98977.72;5014106;28;20037;-81
2023/12/24 11:36:33;;;;;;;76.45;45.63;;;;;;;10.95;60.97;98964.38;5015132;28;20042;-82
2023/12/24 11:39:19;;;;;;;79.65;46.00;;;;;;;10.76;59.20;98961.13;5020133;28;20065;-80
2023/12/24 11:42:06;;;;;;;72.78;44.20;;;;;;;10.91;60.96;98967.78;5020249;28;20053;-79
2023/12/24 11:44:55;;;;;;;114.97;58.90;;;;;;;11.04;60.60;98962.97;5019705;28;20041;-86
2023/12/24 11:47:41;;;;;;;107.50;54.53;;;;;;;11.17;60.65;98961.03;5025059;28;20049;-77
2023/12/24 11:50:28;;;;;;;78.63;45.72;;;;;;;10.91;59.66;98967.78;5039586;28;20045;-81
2023/12/24 11:53:18;;;;;;;93.40;51.90;;;;;;;10.98;60.72;98979.88;5033230;28;20041;-82
2023/12/24 11:56:14;;;;;;;87.85;49.67;;;;;;;11.00;60.22;98976.94;5017815;28;20048;-81
2023/12/24 11:59:04;;;;;;;80.80;47.53;;;;;;;11.10;59.87;98967.31;5039560;28;20049;-81
2023/12/24 12:02:02;;;;;;;120.57;63.58;;;;;;;11.23;61.09;98963.56;5039524;28;20041;-78
2023/12/24 12:04:48;;;;;;;87.88;48.65;;;;;;;11.14;59.88;98966.84;5032683;28;20042;-80
2023/12/24 12:07:34;;;;;;;79.40;45.53;;;;;;;11.08;59.71;98968.59;5033690;28;20041;-79
2023/12/24 12:10:19;;;;;;;70.00;41.70;;;;;;;11.05;58.61;98969.88;5032930;28;20041;-83
2023/12/24 12:13:06;;;;;;;70.30;39.63;;;;;;;11.11;59.21;98976.09;5039416;28;20501;-82
2023/12/24 12:15:53;;;;;;;63.25;36.92;;;;;;;11.21;58.47;98980.78;5039457;28;20045;-79
2023/12/24 12:18:39;;;;;;;60.13;37.50;;;;;;;11.17;58.50;98982.31;5032150;28;20038;-78
2023/12/24 12:21:24;;;;;;;65.30;38.47;;;;;;;11.31;58.97;98972.97;5032644;28;20087;-78
2023/12/24 12:24:10;;;;;;;61.90;38.65;;;;;;;11.45;59.87;98979.63;5032282;28;20052;-79
2023/12/24 12:26:56;;;;;;;61.30;36.03;;;;;;;11.49;58.14;98975.41;5038594;28;20052;-77
2023/12/24 12:29:41;;;;;;;68.80;37.50;;;;;;;11.65;57.79;98965.81;5032265;28;20250;-78
2023/12/24 12:32:30;;;;;;;59.75;35.85;;;;;;;11.61;57.95;98966.56;5032174;28;20419;-81
2023/12/24 12:35:15;;;;;;;62.42;39.08;;;;;;;11.71;58.04;98972.84;5031541;28;20042;-82
2023/12/24 12:38:02;;;;;;;64.20;37.50;;;;;;;11.71;57.87;98966.72;5003313;28;20145;-82
2023/12/24 12:40:47;;;;;;;71.85;40.10;;;;;;;11.75;58.23;98957.19;5031948;28;20061;-82
2023/12/24 12:43:35;;;;;;;77.55;40.78;;;;;;;11.74;58.73;98958.25;5038470;28;20057;-81
2023/12/24 12:46:21;;;;;;;64.60;39.47;;;;;;;11.72;59.09;98941.69;5026436;28;20463;-78
2023/12/24 12:49:07;;;;;;;56.08;33.88;;;;;;;11.67;57.64;98950.41;5037692;28;20046;-76
2023/12/24 12:51:52;;;;;;;62.80;34.92;;;;;;;11.72;58.03;98952.34;5035552;28;20045;-76